Time;durP1;ratioP1;P1;durP2;ratioP2;P2;SDS_P1;SDS_P2;PMS_P1;PMS_P2;Temp;Humidity;BMP_temperature;BMP_pressure;BME280_temperature;BME280_humidity;BME280_pressure;Samples;Min_cycle;Max_cycle;Signal;HPM_P1;HPM_P2
2022/07/07 00:01:54;;;;;;;;;0.00;0.00;;;;;-146.67;30.29;74479.94;5062477;28;62574;-84
2022/07/07 00:04:20;;;;;;;;;0.00;0.00;;;;;-146.67;30.50;74493.91;5062964;28;62099;-84
2022/07/07 00:06:45;;;;;;;;;0.00;0.00;;;;;-146.67;29.97;74493.91;5061506;28;62159;-84
2022/07/07 00:09:11;;;;;;;;;0.00;0.00;;;;;-146.67;30.63;74491.94;5062949;28;61750;-85
2022/07/07 00:11:36;;;;;;;;;0.00;0.00;;;;;-146.67;30.97;74491.94;5060564;28;63694;-84
2022/07/07 00:14:02;;;;;;;;;0.00;0.00;;;;;-146.67;30.62;74495.91;5060768;28;61932;-84
2022/07/07 00:16:28;;;;;;;;;0.00;0.00;;;;;-146.67;30.60;74509.88;5061661;28;61919;-84
2022/07/07 00:18:54;;;;;;;;;0.00;0.00;;;;;-146.67;31.04;74507.91;5061642;28;61771;-84
2022/07/07 00:21:20;;;;;;;;;0.00;0.00;;;;;-146.67;30.39;74505.91;5060754;28;65183;-84
2022/07/07 00:23:46;;;;;;;;;0.00;0.00;;;;;-146.67;31.07;74513.88;5060073;28;62222;-84
2022/07/07 00:26:11;;;;;;;;;0.00;0.00;;;;;-146.67;30.78;74507.91;5061990;28;61809;-84
2022/07/07 00:28:37;;;;;;;;;0.00;0.00;;;;;-146.67;31.33;74525.88;5062475;28;62004;-84
2022/07/07 00:31:02;;;;;;;;;0.00;0.00;;;;;-146.67;31.39;74553.81;5062064;28;62610;-84
2022/07/07 00:33:28;;;;;;;;;0.00;0.00;;;;;-146.67;31.28;74569.78;5062692;28;61872;-84
2022/07/07 00:35:54;;;;;;;;;0.00;0.00;;;;;-146.67;31.40;74567.78;5062501;28;61925;-84
2022/07/07 00:38:20;;;;;;;;;0.00;0.00;;;;;-146.67;31.60;74559.81;5061219;28;62146;-84
2022/07/07 00:40:50;;;;;;;;;0.00;0.00;;;;;-146.67;31.37;74561.81;5061548;28;62840;-84
2022/07/07 00:43:16;;;;;;;;;0.00;0.00;;;;;-146.67;31.56;74561.81;5060886;28;61830;-84
2022/07/07 00:45:41;;;;;;;;;0.00;0.00;;;;;-146.67;31.24;74561.81;5062319;28;62075;-84
2022/07/07 00:48:08;;;;;;;;;0.00;0.00;;;;;-146.67;31.31;74547.81;5061012;28;61755;-84
2022/07/07 00:50:33;;;;;;;;;0.00;0.00;;;;;-146.67;31.68;74567.78;5060274;28;64153;-84
2022/07/07 00:52:59;;;;;;;;;0.00;0.00;;;;;-146.67;31.78;74575.78;5060188;28;61773;-84
2022/07/07 00:55:24;;;;;;;;;0.00;0.00;;;;;-146.67;31.30;74563.78;5062517;28;61910;-84
2022/07/07 00:57:50;;;;;;;;;0.00;0.00;;;;;-146.67;31.62;74559.81;5061740;28;62009;-84
2022/07/07 01:00:16;;;;;;;;;0.00;0.00;;;;;-146.67;31.54;74545.81;5061593;28;61857;-84
2022/07/07 01:02:42;;;;;;;;;0.00;0.00;;;;;-146.67;31.36;74553.81;5062175;28;62020;-84
2022/07/07 01:05:09;;;;;;;;;0.00;0.00;;;;;-146.67;31.50;74561.81;5060833;28;61952;-84
2022/07/07 01:07:36;;;;;;;;;0.00;0.00;;;;;-146.67;31.50;74587.75;5061980;28;62008;-84
2022/07/07 01:10:05;;;;;;;;;0.00;0.00;;;;;-146.67;31.63;74585.75;5061466;28;61875;-84
2022/07/07 01:12:39;;;;;;;;;0.00;0.00;;;;;-146.67;31.88;74577.78;5061668;28;61878;-84
2022/07/07 01:15:08;;;;;;;;;0.00;0.00;;;;;-146.67;32.17;74569.78;5061537;28;62268;-84
2022/07/07 01:17:34;;;;;;;;;0.00;0.00;;;;;-146.67;31.60;74559.81;5060908;28;61779;-84
2022/07/07 01:20:02;;;;;;;;;0.00;0.00;;;;;-146.67;32.34;74559.81;5061190;28;61837;-84
2022/07/07 01:22:31;;;;;;;;;0.00;0.00;;;;;-146.67;31.76;74553.81;5061172;28;61903;-84
2022/07/07 01:24:57;;;;;;;;;0.00;0.00;;;;;-146.67;31.99;74563.78;5061810;28;61974;-83
2022/07/07 01:27:23;;;;;;;;;0.00;0.00;;;;;-146.67;31.39;74559.81;5061698;28;62018;-83
2022/07/07 01:29:50;;;;;;;;;0.00;0.00;;;;;-146.67;31.85;74559.81;5059571;28;63809;-84
2022/07/07 01:32:16;;;;;;;;;0.00;0.00;;;;;-146.67;31.82;74569.78;5060288;28;62090;-84
2022/07/07 01:34:44;;;;;;;;;0.00;0.00;;;;;-146.67;31.75;74569.78;5060631;28;61777;-84
2022/07/07 01:37:10;;;;;;;;;0.00;0.00;;;;;-146.67;31.85;74563.78;5064688;28;62011;-84
2022/07/07 01:39:37;;;;;;;;;0.00;0.00;;;;;-146.67;32.22;74559.81;5064630;28;62860;-84
2022/07/07 01:42:04;;;;;;;;;0.00;0.00;;;;;-146.67;32.02;74561.81;5064746;28;61980;-84
2022/07/07 01:44:31;;;;;;;;;0.00;0.00;;;;;-146.67;32.13;74553.81;5065568;28;61837;-84
2022/07/07 01:46:57;;;;;;;;;0.00;0.00;;;;;-146.67;32.18;74545.81;5065033;28;62068;-84
2022/07/07 01:49:22;;;;;;;;;0.00;0.00;;;;;-146.67;32.06;74533.84;5063236;28;63757;-84
2022/07/07 01:51:48;;;;;;;;;0.00;0.00;;;;;-146.67;32.28;74545.81;5064819;28;62166;-84
2022/07/07 01:54:13;;;;;;;;;0.00;0.00;;;;;-146.67;32.55;74533.84;5064369;28;62195;-84
2022/07/07 01:56:39;;;;;;;;;0.00;0.00;;;;;-146.67;32.33;74519.88;5065012;28;61897;-84
2022/07/07 01:59:04;;;;;;;;;0.00;0.00;;;;;-146.67;32.31;74519.88;5062690;28;65245;-84
2022/07/07 02:01:29;;;;;;;;;0.00;0.00;;;;;-146.67;32.27;74509.88;5065015;28;61719;-84
2022/07/07 02:03:55;;;;;;;;;0.00;0.00;;;;;-146.67;31.67;74509.88;5064774;28;61896;-84
2022/07/07 02:06:20;;;;;;;;;0.00;0.00;;;;;-146.67;31.95;74525.88;5065049;28;62001;-83
2022/07/07 02:08:46;;;;;;;;;0.00;0.00;;;;;-146.67;32.19;74523.88;5063925;28;62997;-84
2022/07/07 02:11:14;;;;;;;;;0.00;0.00;;;;;-146.67;32.10;74517.88;5063983;28;61920;-84
2022/07/07 02:13:47;;;;;;;;;0.00;0.00;;;;;-146.67;31.91;74509.88;5057587;28;61860;-84
2022/07/07 02:16:14;;;;;;;;;0.00;0.00;;;;;-146.67;32.32;74501.91;5044761;28;61730;-84
2022/07/07 02:18:41;;;;;;;;;0.00;0.00;;;;;-146.67;32.27;74505.91;5044117;28;62607;-84
2022/07/07 02:21:08;;;;;;;;;0.00;0.00;;;;;-146.67;32.30;74503.91;5042743;28;61854;-84
2022/07/07 02:23:34;;;;;;;;;0.00;0.00;;;;;-146.67;32.17;74511.88;5042364;28;62005;-84
2022/07/07 02:26:00;;;;;;;;;0.00;0.00;;;;;-146.67;31.67;74531.84;5042578;28;62238;-84
2022/07/07 02:28:26;;;;;;;;;0.00;0.00;;;;;-146.67;32.11;74531.84;5043913;28;61869;-84
2022/07/07 02:30:53;;;;;;;;;0.00;0.00;;;;;-146.67;32.11;74539.84;5042876;28;62071;-84
2022/07/07 02:33:20;;;;;;;;;0.00;0.00;;;;;-146.67;32.23;74537.84;5044479;28;62089;-84
2022/07/07 02:35:47;;;;;;;;;0.00;0.00;;;;;-146.67;32.69;74547.81;5044371;28;61857;-84
2022/07/07 02:38:12;;;;;;;;;0.00;0.00;;;;;-146.67;32.37;74561.81;5041786;28;63825;-84
2022/07/07 02:40:38;;;;;;;;;0.00;0.00;;;;;-146.67;32.33;74573.78;5042447;28;62096;-84
2022/07/07 02:43:03;;;;;;;;;0.00;0.00;;;;;-146.67;32.05;74579.78;5044158;28;61786;-83
2022/07/07 02:45:29;;;;;;;;;0.00;0.00;;;;;-146.67;32.44;74597.75;5044242;28;61960;-83
2022/07/07 02:47:54;;;;;;;;;0.00;0.00;;;;;-146.67;32.97;74607.72;5041320;28;63837;-83
2022/07/07 02:50:20;;;;;;;;;0.00;0.00;;;;;-146.67;32.68;74605.72;5043970;28;61905;-84
2022/07/07 02:52:45;;;;;;;;;0.00;0.00;;;;;-146.67;32.33;74619.69;5043210;28;61738;-84
2022/07/07 02:55:10;;;;;;;;;0.00;0.00;;;;;-146.67;32.92;74623.69;5043460;28;61878;-84
2022/07/07 02:57:36;;;;;;;;;0.00;0.00;;;;;-146.67;32.55;74629.69;5046098;28;64721;-83
2022/07/07 03:00:04;;;;;;;;;0.00;0.00;;;;;-146.67;32.64;74627.69;5048476;28;61740;-83
2022/07/07 03:02:29;;;;;;;;;0.00;0.00;;;;;-146.67;32.19;74645.66;5043670;28;61985;-84
2022/07/07 03:04:55;;;;;;;;;0.00;0.00;;;;;-146.67;32.57;74665.63;5044115;28;61706;-83
2022/07/07 03:07:20;;;;;;;;;0.00;0.00;;;;;-146.67;32.66;74665.63;5042401;28;62511;-84
2022/07/07 03:09:46;;;;;;;;;0.00;0.00;;;;;-146.67;33.18;74667.63;5041785;28;61924;-84
2022/07/07 03:12:11;;;;;;;;;0.00;0.00;;;;;-146.67;32.74;74673.59;5043411;28;62153;-83
2022/07/07 03:14:37;;;;;;;;;0.00;0.00;;;;;-146.67;32.75;74675.59;5058765;28;61765;-84
2022/07/07 03:17:05;;;;;;;;;0.00;0.00;;;;;-146.67;33.56;74683.59;5061533;28;63862;-83
2022/07/07 03:19:34;;;;;;;;;0.00;0.00;;;;;-146.67;33.07;74685.59;5062363;28;61945;-83
2022/07/07 03:22:00;;;;;;;;;0.00;0.00;;;;;-146.67;33.46;74687.56;5062250;28;62020;-83
2022/07/07 03:24:26;;;;;;;;;0.00;0.00;;;;;-146.67;33.09;74681.59;5061070;28;62028;-84
2022/07/07 03:26:52;;;;;;;;;0.00;0.00;;;;;-146.67;33.54;74681.59;5063008;28;61971;-84
2022/07/07 03:29:17;;;;;;;;;0.00;0.00;;;;;-146.67;33.13;74701.56;5063453;28;61923;-84
2022/07/07 03:31:43;;;;;;;;;0.00;0.00;;;;;-146.67;33.12;74693.56;5063639;28;61942;-84
2022/07/07 03:34:08;;;;;;;;;0.00;0.00;;;;;-146.67;33.60;74697.56;5063574;28;62295;-84
2022/07/07 03:36:34;;;;;;;;;0.00;0.00;;;;;-146.67;33.52;74695.56;5062898;28;61778;-84
2022/07/07 03:38:59;;;;;;;;;0.00;0.00;;;;;-146.67;33.58;74699.56;5062629;28;61880;-84
2022/07/07 03:41:25;;;;;;;;;0.00;0.00;;;;;-146.67;34.07;74691.56;5063396;28;61989;-84
2022/07/07 03:43:50;;;;;;;;;0.00;0.00;;;;;-146.67;33.63;74679.59;5062146;28;61781;-84
2022/07/07 03:46:16;;;;;;;;;0.00;0.00;;;;;-146.67;33.76;74667.63;5062510;28;63126;-84
2022/07/07 03:48:41;;;;;;;;;0.00;0.00;;;;;-146.67;33.21;74657.63;5063552;28;61781;-84
2022/07/07 03:51:07;;;;;;;;;0.00;0.00;;;;;-146.67;33.25;74661.63;5061705;28;61954;-84
2022/07/07 03:53:32;;;;;;;;;0.00;0.00;;;;;-146.67;33.83;74671.59;5062209;28;61667;-84
2022/07/07 03:55:58;;;;;;;;;0.00;0.00;;;;;-146.67;33.88;74649.66;5061277;28;63939;-84
2022/07/07 03:58:23;;;;;;;;;0.00;0.00;;;;;-146.67;33.66;74637.66;5062843;28;61947;-84
2022/07/07 04:00:49;;;;;;;;;0.00;0.00;;;;;-146.67;33.74;74627.69;5063120;28;62187;-84
2022/07/07 04:03:14;;;;;;;;;0.00;0.00;;;;;-146.67;33.51;74627.69;5061711;28;61834;-84
2022/07/07 04:05:39;;;;;;;;;0.00;0.00;;;;;-146.67;33.75;74617.69;5062066;28;62727;-84
2022/07/07 04:08:05;;;;;;;;;0.00;0.00;;;;;-146.67;33.47;74607.72;5062254;28;61797;-84
2022/07/07 04:10:30;;;;;;;;;0.00;0.00;;;;;-146.67;33.51;74595.75;5062827;28;61941;-84
2022/07/07 04:12:56;;;;;;;;;0.00;0.00;;;;;-146.67;33.60;74599.72;5062460;28;61859;-84
2022/07/07 04:15:21;;;;;;;;;0.00;0.00;;;;;-146.67;33.55;74593.75;5041928;28;62659;-84
2022/07/07 04:17:46;;;;;;;;;0.00;0.00;;;;;-146.67;33.46;74583.75;5042861;28;61762;-83
2022/07/07 04:20:12;;;;;;;;;0.00;0.00;;;;;-146.67;33.33;74587.75;5042558;28;62219;-84
2022/07/07 04:22:37;;;;;;;;;0.00;0.00;;;;;-146.67;33.40;74571.78;5040236;28;61922;-84
2022/07/07 04:25:04;;;;;;;;;0.00;0.00;;;;;-146.67;33.48;74573.78;5041631;28;62859;-84
2022/07/07 04:27:30;;;;;;;;;0.00;0.00;;;;;-146.67;33.65;74561.81;5042507;28;61741;-83
2022/07/07 04:29:55;;;;;;;;;0.00;0.00;;;;;-146.67;33.32;74563.78;5042692;28;61971;-83
2022/07/07 04:32:20;;;;;;;;;0.00;0.00;;;;;-146.67;33.31;74567.78;5040942;28;61813;-83
2022/07/07 04:34:46;;;;;;;;;0.00;0.00;;;;;-146.67;33.26;74551.81;5040456;28;63580;-83
2022/07/07 04:37:11;;;;;;;;;0.00;0.00;;;;;-146.67;33.23;74547.81;5040667;28;62176;-84
2022/07/07 04:39:37;;;;;;;;;0.00;0.00;;;;;-146.67;33.51;74543.84;5042487;28;62049;-84
2022/07/07 04:42:03;;;;;;;;;0.00;0.00;;;;;-146.67;33.26;74553.81;5042399;28;62082;-84
2022/07/07 04:44:29;;;;;;;;;0.00;0.00;;;;;-146.67;33.26;74561.81;5041429;28;62080;-84
2022/07/07 04:46:54;;;;;;;;;0.00;0.00;;;;;-146.67;33.07;74563.78;5040674;28;61875;-84
2022/07/07 04:49:20;;;;;;;;;0.00;0.00;;;;;-146.67;33.02;74577.78;5041818;28;61693;-84
2022/07/07 04:51:45;;;;;;;;;0.00;0.00;;;;;-146.67;33.21;74599.72;5042372;28;61806;-83
2022/07/07 04:54:11;;;;;;;;;0.00;0.00;;;;;-146.67;32.97;74621.69;5040676;28;62131;-83
2022/07/07 04:56:36;;;;;;;;;0.00;0.00;;;;;-146.67;33.63;74657.63;5041864;28;61707;-84
2022/07/07 04:59:01;;;;;;;;;0.00;0.00;;;;;-146.67;33.44;74669.63;5042250;28;61670;-83
2022/07/07 05:01:27;;;;;;;;;0.00;0.00;;;;;-146.67;33.85;74671.59;5042186;28;62222;-83
2022/07/07 05:03:52;;;;;;;;;0.00;0.00;;;;;-146.67;33.80;74677.59;5041137;28;62138;-83
2022/07/07 05:06:18;;;;;;;;;0.00;0.00;;;;;-146.67;34.07;74685.59;5042237;28;61914;-90
2022/07/07 05:08:43;;;;;;;;;1.00;1.00;;;;;-146.67;33.73;74705.53;5040333;28;61868;-83
2022/07/07 05:11:08;;;;;;;;;0.00;0.00;;;;;-146.67;34.01;74707.53;5042052;28;62214;-85
2022/07/07 05:13:34;;;;;;;;;0.00;0.00;;;;;-146.67;33.91;74707.53;5050260;28;64765;-82
2022/07/07 05:16:00;;;;;;;;;0.00;0.00;;;;;-146.67;34.11;74703.56;5065709;28;61774;-80
2022/07/07 05:18:25;;;;;;;;;0.00;0.00;;;;;-146.67;34.11;74687.56;5064865;28;61922;-79
2022/07/07 05:20:50;;;;;;;;;0.00;0.00;;;;;-146.67;34.35;74705.53;5065985;28;61789;-79
2022/07/07 05:23:16;;;;;;;;;0.00;0.00;;;;;-146.67;34.42;74703.56;5062708;28;64646;-81
2022/07/07 05:25:41;;;;;;;;;0.00;0.00;;;;;-146.67;34.34;74691.56;5065184;28;62012;-82
2022/07/07 05:28:07;;;;;;;;;0.00;0.00;;;;;-146.67;34.22;74683.59;5065648;28;62027;-83
2022/07/07 05:30:32;;;;;;;;;0.00;0.00;;;;;-146.67;34.11;74707.53;5065417;28;61747;-86
2022/07/07 05:32:58;;;;;;;;;0.00;0.00;;;;;-146.67;34.33;74697.56;5064228;28;61862;-80
2022/07/07 05:35:23;;;;;;;;;0.00;0.00;;;;;-146.67;34.76;74675.59;5065579;28;62240;-84
2022/07/07 05:37:48;;;;;;;;;0.00;0.00;;;;;-146.67;34.37;74651.66;5058007;28;62427;-81
2022/07/07 05:40:14;;;;;;;;;0.00;0.00;;;;;-146.67;33.77;74649.66;5047479;28;61842;-88
2022/07/07 05:42:39;;;;;;;;;0.00;0.00;;;;;-146.67;34.53;74669.63;5064173;28;63103;-88
2022/07/07 05:45:05;;;;;;;;;0.00;0.00;;;;;-146.67;34.87;74671.59;5059009;28;61761;-89
2022/07/07 05:47:31;;;;;;;;;0.00;0.00;;;;;-146.67;34.18;74661.63;5044537;28;62064;-86
2022/07/07 05:49:57;;;;;;;;;0.00;0.00;;;;;-146.67;34.02;74653.63;5045326;28;62040;-84
2022/07/07 05:52:23;;;;;;;;;0.00;0.00;;;;;-146.67;34.22;74659.63;5044324;28;61916;-85
2022/07/07 05:54:48;;;;;;;;;0.00;0.00;;;;;-146.67;34.18;74663.63;5060272;28;61857;-91
2022/07/07 05:57:14;;;;;;;;;0.00;0.00;;;;;-146.67;34.17;74657.63;5063961;28;61819;-88
2022/07/07 05:59:40;;;;;;;;;0.00;0.00;;;;;-146.67;34.21;74649.66;5065007;28;62429;-89
2022/07/07 06:02:06;;;;;;;;;0.00;0.00;;;;;-146.67;34.17;74643.66;5063800;28;61856;-86
2022/07/07 06:04:32;;;;;;;;;0.00;0.00;;;;;-146.67;34.33;74631.69;5063433;28;62338;-86
2022/07/07 06:06:57;;;;;;;;;0.00;0.00;;;;;-146.67;34.25;74635.66;5064674;28;61723;-89
2022/07/07 06:09:23;;;;;;;;;0.00;0.00;;;;;-146.67;34.20;74637.66;5065001;28;61714;-87
2022/07/07 06:11:49;;;;;;;;;0.00;0.00;;;;;-146.67;34.02;74639.66;5049987;28;63513;-88
2022/07/07 06:14:15;;;;;;;;;0.00;0.00;;;;;-146.67;34.53;74631.69;5085377;27;61986;-90
2022/07/07 06:16:42;;;;;;;;;0.00;0.00;;;;;-146.67;34.08;74631.69;5063701;28;62305;-89
2022/07/07 06:19:13;;;;;;;;;0.00;0.00;;;;;-146.67;33.99;74639.66;5064332;28;62164;-90
2022/07/07 06:21:39;;;;;;;;;0.00;0.00;;;;;-146.67;34.49;74635.66;5062645;28;61752;-82
2022/07/07 06:24:06;;;;;;;;;0.00;0.00;;;;;-146.67;34.34;74615.72;5055420;28;62015;-86
2022/07/07 06:26:31;;;;;;;;;0.00;0.00;;;;;-146.67;33.96;74617.69;5061630;28;62063;-89
2022/07/07 06:28:57;;;;;;;;;0.00;0.00;;;;;-146.67;34.58;74625.69;5064090;28;61723;-87
2022/07/07 06:31:22;;;;;;;;;0.00;0.00;;;;;-146.67;34.31;74619.69;5062639;28;62221;-89
2022/07/07 06:33:48;;;;;;;;;0.00;0.00;;;;;-146.67;33.64;74607.72;5063919;28;61979;-87
2022/07/07 06:36:13;;;;;;;;;0.00;0.00;;;;;-146.67;33.91;74609.72;5064252;28;61861;-85
2022/07/07 06:38:39;;;;;;;;;0.00;0.00;;;;;-146.67;33.70;74591.75;5044774;28;62169;-88
2022/07/07 06:41:05;;;;;;;;;0.00;0.00;;;;;-146.67;33.83;74575.78;5043372;28;61986;-86
2022/07/07 06:43:30;;;;;;;;;0.00;0.00;;;;;-146.67;33.79;74573.78;5073693;28;61890;-88
2022/07/07 06:45:56;;;;;;;;;0.00;0.00;;;;;-146.67;33.94;74571.78;5083342;28;61847;-87
2022/07/07 06:48:22;;;;;;;;;0.00;0.00;;;;;-146.67;33.86;74563.78;5074318;28;62214;-86
2022/07/07 06:50:48;;;;;;;;;0.00;0.00;;;;;-146.67;33.91;74531.84;5083747;27;61984;-87
2022/07/07 06:53:13;;;;;;;;;0.00;0.00;;;;;-146.67;33.38;74519.88;5063171;27;63252;-86
2022/07/07 06:55:39;;;;;;;;;0.00;0.00;;;;;-146.67;33.26;74481.94;5063228;28;62584;-85
2022/07/07 06:58:04;;;;;;;;;0.00;0.00;;;;;-146.67;33.30;74493.91;5063342;28;61916;-88
2022/07/07 07:00:30;;;;;;;;;0.00;0.00;;;;;-146.67;33.38;74491.94;5060891;28;62099;-90
2022/07/07 07:02:56;;;;;;;;;0.00;0.00;;;;;-146.67;33.33;74463.97;5062837;28;61990;-92
2022/07/07 07:05:22;;;;;;;;;0.00;0.00;;;;;-146.67;33.19;74440.00;5061842;28;61967;-91
2022/07/07 07:07:48;;;;;;;;;0.00;0.00;;;;;-146.67;32.68;74410.06;5064141;28;62194;-91
2022/07/07 07:10:14;;;;;;;;;0.00;0.00;;;;;-146.67;32.88;74408.06;5061759;28;64536;-90
2022/07/07 07:12:40;;;;;;;;;0.00;0.00;;;;;-146.67;32.72;74384.13;5063576;28;61773;-91
2022/07/07 07:15:06;;;;;;;;;0.00;0.00;;;;;-146.67;32.44;74372.13;5062735;28;61748;-90
2022/07/07 07:17:32;;;;;;;;;0.00;0.00;;;;;-146.67;32.09;74374.13;5063903;28;61773;-91
2022/07/07 07:19:58;;;;;;;;;0.00;0.00;;;;;-146.67;32.42;74372.13;5065333;28;62586;-91
2022/07/07 07:22:24;;;;;;;;;0.00;0.00;;;;;-146.67;32.37;74384.13;5073988;28;62250;-88
2022/07/07 07:24:50;;;;;;;;;0.00;0.00;;;;;-146.67;31.98;74370.16;5070069;28;62306;-89
2022/07/07 07:27:16;;;;;;;;;0.00;0.00;;;;;-146.67;32.02;74372.13;5072160;28;61981;-91
2022/07/07 07:29:42;;;;;;;;;0.00;0.00;;;;;-146.67;32.32;74380.13;5072824;27;62188;-90
2022/07/07 07:32:07;;;;;;;;;0.00;0.00;;;;;-146.67;32.09;74370.16;5071273;28;61961;-91
2022/07/07 07:34:33;;;;;;;;;0.00;0.00;;;;;-146.67;32.16;74386.13;5073953;28;61900;-90
2022/07/07 07:36:58;;;;;;;;;0.00;0.00;;;;;-146.67;32.25;74378.13;5071703;28;61866;-91
2022/07/07 07:39:24;;;;;;;;;0.00;0.00;;;;;-146.67;32.33;74376.13;5071319;28;62126;-88
2022/07/07 07:41:49;;;;;;;;;0.00;0.00;;;;;-146.67;32.07;74372.13;5074371;28;62062;-91
2022/07/07 07:45:09;;;;;;;;;0.00;0.00;;;;;-146.67;31.93;74364.16;5083103;27;61742;-90
2022/07/07 07:47:04;;;;;;;;;0.00;0.00;;;;;-146.67;31.91;74342.19;5083274;28;61874;-91
2022/07/07 07:49:30;;;;;;;;;0.00;0.00;;;;;-146.67;32.04;74332.22;5076598;28;61832;-91
2022/07/07 07:51:56;;;;;;;;;0.00;0.00;;;;;-146.67;31.48;74298.28;5071499;27;62131;-91
2022/07/07 07:54:21;;;;;;;;;0.00;0.00;;;;;-146.67;31.37;74314.25;5072602;27;61678;-90
2022/07/07 07:56:47;;;;;;;;;0.00;0.00;;;;;-146.67;31.71;74308.25;5071847;28;61825;-89
2022/07/07 07:59:13;;;;;;;;;0.00;0.00;;;;;-146.67;31.11;74272.31;5066069;28;61956;-91
2022/07/07 08:01:39;;;;;;;;;0.00;0.00;;;;;-146.67;31.34;74272.31;5083295;27;61847;-92
2022/07/07 08:04:05;;;;;;;;;0.00;0.00;;;;;-146.67;31.72;74260.34;5081873;28;62226;-91
2022/07/07 08:06:31;;;;;;;;;0.00;0.00;;;;;-146.67;31.10;74250.38;5083479;28;61835;-91
2022/07/07 08:08:56;;;;;;;;;0.00;0.00;;;;;-146.67;31.14;74238.38;5080502;28;63061;-90
2022/07/07 08:11:22;;;;;;;;;0.00;0.00;;;;;-146.67;30.94;74246.38;5075590;27;62016;-89
2022/07/07 08:13:47;;;;;;;;;0.00;0.00;;;;;-146.67;30.94;74232.41;5061664;28;61940;-91
2022/07/07 08:16:12;;;;;;;;;0.00;0.00;;;;;-146.67;30.69;74228.41;5062843;28;61760;-89
2022/07/07 08:18:38;;;;;;;;;0.00;0.00;;;;;-146.67;30.64;74210.44;5066218;28;64938;-91
2022/07/07 08:21:03;;;;;;;;;0.00;0.00;;;;;-146.67;30.68;74208.44;5071077;27;61907;-91
2022/07/07 08:23:29;;;;;;;;;0.00;0.00;;;;;-146.67;30.63;74206.44;5063228;28;62274;-91
2022/07/07 08:25:54;;;;;;;;;0.00;0.00;;;;;-146.67;30.52;74186.47;5062397;28;61768;-91
2022/07/07 08:28:20;;;;;;;;;0.00;0.00;;;;;-146.67;30.60;74176.50;5061838;28;61774;-90
2022/07/07 08:30:45;;;;;;;;;0.00;0.00;;;;;-146.67;30.57;74160.53;5061547;28;61923;-91
2022/07/07 08:33:11;;;;;;;;;0.00;0.00;;;;;-146.67;30.46;74140.56;5062342;28;62422;-91
2022/07/07 08:35:36;;;;;;;;;0.00;0.00;;;;;-146.67;30.32;74122.59;5064380;28;62225;-91
2022/07/07 08:38:03;;;;;;;;;0.00;0.00;;;;;-146.67;30.11;74108.63;5052336;28;63894;-91
2022/07/07 08:40:28;;;;;;;;;0.00;0.00;;;;;-146.67;30.13;74114.63;5042301;28;61979;-87
2022/07/07 08:42:54;;;;;;;;;0.00;0.00;;;;;-146.67;29.73;74102.63;5041653;28;61811;-86
2022/07/07 08:45:19;;;;;;;;;0.00;0.00;;;;;-146.67;29.70;74102.63;5051574;28;61719;-85
2022/07/07 08:47:45;;;;;;;;;0.00;0.00;;;;;-146.67;29.32;74082.69;5060083;28;63629;-86
2022/07/07 08:50:11;;;;;;;;;0.00;0.00;;;;;-146.67;29.32;74084.66;5067396;28;62379;-86
2022/07/07 08:52:36;;;;;;;;;0.00;0.00;;;;;-146.67;29.05;74066.69;5069155;28;62149;-85
2022/07/07 08:55:03;;;;;;;;;0.00;0.00;;;;;-146.67;29.38;74050.72;5072699;28;62130;-86
2022/07/07 08:57:28;;;;;;;;;0.00;0.00;;;;;-146.67;28.90;74050.72;5068939;28;64256;-86
2022/07/07 08:59:56;;;;;;;;;0.00;0.00;;;;;-146.67;28.95;74042.75;5075676;28;62185;-83
2022/07/07 09:02:23;;;;;;;;;0.00;0.00;;;;;-146.67;28.98;74030.78;5070844;28;61804;-86
2022/07/07 09:04:51;;;;;;;;;0.00;0.00;;;;;-146.67;29.03;74028.78;5081020;28;61763;-86
2022/07/07 09:07:17;;;;;;;;;0.00;0.00;;;;;-146.67;28.81;74028.78;5077881;28;65125;-86
2022/07/07 09:09:49;;;;;;;;;0.00;0.00;;;;;-146.67;29.08;74014.81;5074535;28;62558;-84
2022/07/07 09:12:16;;;;;;;;;0.00;0.00;;;;;-146.67;28.58;74004.81;5071319;27;61877;-84
2022/07/07 09:14:50;;;;;;;;;0.00;0.00;;;;;-146.67;28.77;74030.78;5067813;27;61963;-86
2022/07/07 09:17:29;;;;;;;;;0.00;0.00;;;;;-146.67;28.87;74042.75;5065384;28;61838;-86
2022/07/07 09:20:03;;;;;;;;;0.00;0.00;;;;;-146.67;28.70;74018.78;5062849;28;62073;-86
2022/07/07 09:22:47;;;;;;;;;0.00;0.00;;;;;-146.67;28.90;74036.75;5067593;28;62002;-86
2022/07/07 09:25:19;;;;;;;;;0.00;0.00;;;;;-146.67;28.86;74016.78;5070978;28;61884;-87
2022/07/07 09:27:55;;;;;;;;;0.00;0.00;;;;;-146.67;29.05;73992.84;5071527;27;64072;-86
2022/07/07 09:30:46;;;;;;;;;0.00;0.00;;;;;-146.67;28.89;73946.94;5068421;28;61832;-85
2022/07/07 09:33:19;;;;;;;;;0.00;0.00;;;;;-146.67;28.66;73928.97;5048905;28;62386;-87
2022/07/07 09:38:31;;;;;;;;;0.00;0.00;;;;;-146.67;28.36;73968.88;5055070;28;62415;-86
2022/07/07 09:41:03;;;;;;;;;0.00;0.00;;;;;-146.67;28.59;74024.78;5067073;28;61960;-86
2022/07/07 09:43:37;;;;;;;;;0.00;0.00;;;;;-146.67;29.18;74056.72;5062951;27;61741;-86
2022/07/07 09:46:23;;;;;;;;;0.00;0.00;;;;;-146.67;28.93;74092.66;5061955;28;61772;-86
2022/07/07 09:48:55;;;;;;;;;0.00;0.00;;;;;-146.67;29.28;74128.59;5060915;28;62671;-86
2022/07/07 09:51:24;;;;;;;;;0.00;0.00;;;;;-146.67;29.49;74156.53;5070887;28;62244;-86
2022/07/07 09:54:10;;;;;;;;;0.00;0.00;;;;;-146.67;29.73;74196.47;5068538;27;62153;-84
2022/07/07 09:56:39;;;;;;;;;0.00;0.00;;;;;-146.67;29.97;74224.41;5070350;28;62246;-84
2022/07/07 09:59:08;;;;;;;;;0.00;0.00;;;;;-146.67;30.00;74240.38;5079837;28;63650;-83
2022/07/07 10:01:37;;;;;;;;;0.00;0.00;;;;;-146.67;29.75;74248.38;5069224;28;61654;-87
2022/07/07 10:04:08;;;;;;;;;0.00;0.00;;;;;-146.67;29.82;74246.38;5064777;28;61765;-85
2022/07/07 10:06:39;;;;;;;;;0.00;0.00;;;;;-146.67;29.77;74264.34;5064465;28;61893;-84
2022/07/07 10:09:07;;;;;;;;;0.00;0.00;;;;;-146.67;29.76;74266.34;5063321;28;61959;-86
2022/07/07 10:11:44;;;;;;;;;0.00;0.00;;;;;-146.67;29.54;74258.34;5069377;28;61794;-87
2022/07/07 10:14:12;;;;;;;;;0.00;0.00;;;;;-146.67;29.45;74232.41;5064046;28;61900;-88
2022/07/07 10:16:40;;;;;;;;;0.00;0.00;;;;;-146.67;29.30;74214.44;5064657;28;62084;-88
2022/07/07 10:19:07;;;;;;;;;0.00;0.00;;;;;-146.67;29.19;74220.41;5063859;28;62817;-88
2022/07/07 10:21:32;;;;;;;;;0.00;0.00;;;;;-146.67;29.60;74218.41;5063147;28;61864;-88
2022/07/07 10:23:58;;;;;;;;;0.00;0.00;;;;;-146.67;29.47;74236.38;5064757;28;62215;-88
2022/07/07 10:26:37;;;;;;;;;0.00;0.00;;;;;-146.67;29.46;74224.41;5080398;27;62169;-84
2022/07/07 10:29:03;;;;;;;;;0.00;0.00;;;;;-146.67;29.40;74208.44;5079055;28;63990;-83
2022/07/07 10:31:30;;;;;;;;;0.00;0.00;;;;;-146.67;29.36;74168.50;5084516;27;61896;-83
2022/07/07 10:34:06;;;;;;;;;0.00;0.00;;;;;-146.67;28.92;74118.59;5077867;27;62210;-84
2022/07/07 10:36:51;;;;;;;;;0.00;0.00;;;;;-146.67;28.64;74076.69;5077311;28;62089;-83
2022/07/07 10:39:20;;;;;;;;;0.00;0.00;;;;;-146.67;28.53;74054.72;5064675;27;63288;-87
2022/07/07 10:42:15;;;;;;;;;0.00;0.00;;;;;-146.67;28.68;74050.72;5071697;28;61957;-86
2022/07/07 10:44:43;;;;;;;;;0.00;0.00;;;;;-146.67;28.85;74074.69;5072189;28;61958;-86
2022/07/07 10:47:12;;;;;;;;;1.00;0.00;;;;;-146.67;28.71;74112.63;5074724;28;61939;-85
2022/07/07 10:49:42;;;;;;;;;0.00;0.00;;;;;-146.67;28.90;74134.56;5072413;28;61856;-83
2022/07/07 10:52:12;;;;;;;;;0.00;0.00;;;;;-146.67;28.50;74130.59;5072091;27;62002;-84
2022/07/07 10:54:41;;;;;;;;;0.00;0.00;;;;;-146.67;28.72;74144.56;5073180;27;61757;-85
2022/07/07 10:57:22;;;;;;;;;0.00;0.00;;;;;-146.67;28.76;74140.56;5074608;28;61755;-83
2022/07/07 10:59:58;;;;;;;;;0.00;0.00;;;;;-146.67;28.81;74128.59;5073187;28;61921;-82
2022/07/07 11:02:57;;;;;;;;;0.00;0.00;;;;;-146.67;28.75;74120.59;5073358;28;61817;-83
2022/07/07 11:05:31;;;;;;;;;0.00;0.00;;;;;-146.67;28.28;74068.69;5071605;28;61991;-86
2022/07/07 11:07:56;;;;;;;;;0.00;0.00;;;;;-146.67;28.31;74032.75;5069223;28;61878;-87
2022/07/07 11:10:42;;;;;;;;;0.00;0.00;;;;;-146.67;28.20;74020.78;5068244;28;62817;-79
2022/07/07 11:13:36;;;;;;;;;0.00;0.00;;;;;-146.67;27.82;74020.78;5055690;28;61822;-84
2022/07/07 11:16:20;;;;;;;;;0.00;0.00;;;;;-146.67;28.47;74056.72;5079584;28;62108;-82
2022/07/07 11:18:56;;;;;;;;;0.00;0.00;;;;;-146.67;28.20;74086.66;5080772;27;61808;-93
2022/07/07 11:21:37;;;;;;;;;0.00;0.00;;;;;-146.67;28.33;74100.63;5073047;28;62180;-89